createdAt,value
2023-04-30T00:01:48.844Z,8.14
2023-04-30T00:04:17.023Z,8.20
2023-04-30T00:06:45.138Z,8.23
2023-04-30T00:09:13.138Z,8.24
2023-04-30T00:11:41.157Z,8.25
2023-04-30T00:14:10.269Z,8.26
2023-04-30T00:16:38.234Z,8.28
2023-04-30T00:19:06.613Z,8.29
2023-04-30T00:21:34.638Z,8.30
2023-04-30T00:24:02.652Z,8.29
2023-04-30T00:26:30.682Z,8.27
2023-04-30T00:28:58.806Z,8.23
2023-04-30T00:31:26.857Z,8.17
2023-04-30T00:33:54.928Z,8.09
2023-04-30T00:36:23.150Z,8.03
2023-04-30T00:38:51.185Z,7.97
2023-04-30T00:41:19.290Z,7.88
2023-04-30T00:43:47.320Z,7.80
2023-04-30T00:46:15.390Z,7.71
2023-04-30T00:48:43.550Z,7.62
2023-04-30T00:51:11.670Z,7.55
2023-04-30T00:53:40.593Z,7.50
2023-04-30T00:56:09.413Z,7.45
2023-04-30T00:58:37.655Z,7.40
2023-04-30T01:01:07.021Z,7.38
2023-04-30T01:03:38.126Z,7.37
2023-04-30T01:06:06.302Z,7.39
2023-04-30T01:08:34.426Z,7.40
2023-04-30T01:11:18.205Z,7.41
2023-04-30T01:14:08.311Z,7.41
2023-04-30T01:16:40.633Z,7.44
2023-04-30T01:19:31.033Z,7.44
2023-04-30T01:22:01.859Z,7.44
2023-04-30T01:25:15.464Z,7.43
2023-04-30T01:28:16.989Z,7.46
2023-04-30T01:30:45.297Z,7.47
2023-04-30T01:33:13.534Z,7.47
2023-04-30T01:36:20.176Z,7.48
2023-04-30T01:39:02.145Z,7.52
2023-04-30T01:41:39.290Z,7.55
2023-04-30T01:44:18.089Z,7.60
2023-04-30T01:47:06.593Z,7.65
2023-04-30T01:50:12.404Z,7.68
2023-04-30T01:52:52.140Z,7.69
2023-04-30T01:56:00.024Z,7.71
2023-04-30T01:58:28.064Z,7.73
2023-04-30T02:00:56.160Z,7.72
2023-04-30T02:03:24.432Z,7.73
2023-04-30T02:05:53.198Z,7.75
2023-04-30T02:08:22.223Z,7.77
2023-04-30T02:10:50.550Z,7.76
2023-04-30T02:13:18.562Z,7.75
2023-04-30T02:15:46.627Z,7.73
2023-04-30T02:18:14.727Z,7.70
2023-04-30T02:20:43.620Z,7.67
2023-04-30T02:23:11.738Z,7.63
2023-04-30T02:25:39.758Z,7.60
2023-04-30T02:28:07.874Z,7.54
2023-04-30T02:30:36.397Z,7.52
2023-04-30T02:33:05.409Z,7.51
2023-04-30T02:35:33.541Z,7.49
2023-04-30T02:38:01.562Z,7.48
2023-04-30T02:40:29.578Z,7.46
2023-04-30T02:42:57.605Z,7.44
2023-04-30T02:45:25.657Z,7.41
2023-04-30T02:47:53.748Z,7.39
2023-04-30T02:50:21.957Z,7.37
2023-04-30T02:52:49.975Z,7.33
2023-04-30T02:55:18.097Z,7.31
2023-04-30T02:57:46.116Z,7.28
2023-04-30T03:00:14.456Z,7.25
2023-04-30T03:02:42.762Z,7.19
2023-04-30T03:05:11.592Z,7.15
2023-04-30T03:07:39.600Z,7.10
2023-04-30T03:10:08.621Z,7.07
2023-04-30T03:12:36.640Z,7.08
2023-04-30T03:15:05.415Z,7.04
2023-04-30T03:17:33.588Z,7.01
2023-04-30T03:20:01.611Z,6.97
2023-04-30T03:22:30.931Z,6.94
2023-04-30T03:24:59.150Z,6.91
2023-04-30T03:27:27.185Z,6.87
2023-04-30T03:29:55.511Z,6.84
2023-04-30T03:32:23.956Z,6.82
2023-04-30T03:34:52.031Z,6.76
2023-04-30T03:37:20.052Z,6.74
2023-04-30T03:39:48.073Z,6.74
2023-04-30T03:42:16.193Z,6.71
2023-04-30T03:44:44.222Z,6.69
2023-04-30T03:47:12.233Z,6.68
2023-04-30T03:49:40.449Z,6.68
2023-04-30T03:52:08.485Z,6.67
2023-04-30T03:54:36.496Z,6.67
2023-04-30T03:57:04.710Z,6.67
2023-04-30T03:59:32.841Z,6.69
2023-04-30T04:02:01.963Z,6.75
2023-04-30T04:04:30.359Z,6.87
2023-04-30T04:06:58.598Z,6.93
2023-04-30T04:09:27.418Z,6.98
2023-04-30T04:11:55.840Z,7.03
2023-04-30T04:14:23.865Z,7.06
2023-04-30T04:16:51.884Z,7.09
2023-04-30T04:19:19.804Z,7.14
2023-04-30T04:21:48.226Z,7.20
2023-04-30T04:24:16.743Z,7.29
2023-04-30T04:26:46.663Z,7.37
2023-04-30T04:29:16.192Z,7.48
2023-04-30T04:31:44.349Z,7.59
2023-04-30T04:34:12.830Z,7.70
2023-04-30T04:36:41.785Z,7.81
2023-04-30T04:39:09.871Z,7.90
2023-04-30T04:41:38.096Z,7.98
2023-04-30T04:44:06.954Z,8.06
2023-04-30T04:46:35.419Z,8.13
2023-04-30T04:49:03.984Z,8.22
2023-04-30T04:51:33.188Z,8.32
2023-04-30T04:54:01.601Z,8.43
2023-04-30T04:56:29.719Z,8.55
2023-04-30T04:58:58.957Z,8.67
2023-04-30T05:01:27.304Z,8.82
2023-04-30T05:03:55.658Z,8.97
2023-04-30T05:06:23.837Z,9.13
2023-04-30T05:08:51.928Z,9.29
2023-04-30T05:11:19.945Z,9.47
2023-04-30T05:13:48.001Z,9.64
2023-04-30T05:16:16.684Z,9.83
2023-04-30T05:18:44.828Z,10.02
2023-04-30T05:21:12.830Z,10.21
2023-04-30T05:23:41.049Z,10.39
2023-04-30T05:26:09.067Z,10.58
2023-04-30T05:28:37.084Z,10.78
2023-04-30T05:31:05.204Z,10.97
2023-04-30T05:33:33.950Z,11.13
2023-04-30T05:36:02.047Z,11.29
2023-04-30T05:38:30.066Z,11.48
2023-04-30T05:40:58.087Z,11.68
2023-04-30T05:43:26.002Z,11.89
2023-04-30T05:45:54.086Z,12.10
2023-04-30T05:48:22.243Z,12.29
2023-04-30T05:50:50.264Z,12.46
2023-04-30T05:53:18.283Z,12.61
2023-04-30T05:55:46.202Z,12.76
2023-04-30T05:58:14.323Z,12.89
2023-04-30T06:00:42.344Z,13.00
2023-04-30T06:03:10.409Z,13.10
2023-04-30T06:05:41.774Z,13.19
2023-04-30T06:08:10.047Z,13.29
2023-04-30T06:10:39.040Z,13.33
2023-04-30T06:13:07.570Z,13.39
2023-04-30T06:15:35.578Z,13.49
2023-04-30T06:18:03.773Z,13.58
2023-04-30T06:20:31.725Z,13.66
2023-04-30T06:23:00.310Z,13.76
2023-04-30T06:25:28.161Z,13.86
2023-04-30T06:27:56.187Z,13.97
2023-04-30T06:30:24.210Z,14.07
2023-04-30T06:32:52.383Z,14.09
2023-04-30T06:35:20.437Z,14.10
2023-04-30T06:37:48.564Z,14.06
2023-04-30T06:40:16.689Z,14.04
2023-04-30T06:42:46.214Z,14.02
2023-04-30T06:45:15.528Z,14.03
2023-04-30T06:47:45.747Z,14.11
2023-04-30T06:50:15.816Z,14.26
2023-04-30T06:52:44.500Z,14.43
2023-04-30T06:55:12.532Z,14.61
2023-04-30T06:57:40.545Z,14.72
2023-04-30T07:00:09.362Z,14.82
2023-04-30T07:02:37.453Z,14.89
2023-04-30T07:05:06.238Z,14.89
2023-04-30T07:07:35.028Z,14.90
2023-04-30T07:10:03.153Z,14.92
2023-04-30T07:12:31.564Z,15.02
2023-04-30T07:14:59.599Z,15.16
2023-04-30T07:17:27.827Z,15.32
2023-04-30T07:19:56.382Z,15.45
2023-04-30T07:22:24.462Z,15.58
2023-04-30T07:24:52.464Z,15.68
2023-04-30T07:27:20.491Z,15.72
2023-04-30T07:29:48.716Z,15.80
2023-04-30T07:32:17.337Z,15.89
2023-04-30T07:34:45.352Z,15.99
2023-04-30T07:37:13.622Z,16.07
2023-04-30T07:39:41.689Z,16.17
2023-04-30T07:42:09.807Z,16.25
2023-04-30T07:44:37.827Z,16.33
2023-04-30T07:47:05.950Z,16.46
2023-04-30T07:49:33.967Z,16.56
2023-04-30T07:52:01.991Z,16.69
2023-04-30T07:54:30.005Z,16.81
2023-04-30T07:56:58.036Z,16.81
2023-04-30T07:59:26.061Z,16.71
2023-04-30T08:01:54.192Z,16.63
2023-04-30T08:04:22.316Z,16.57
2023-04-30T08:06:50.810Z,16.51
2023-04-30T08:09:18.929Z,16.55
2023-04-30T08:11:46.947Z,16.61
2023-04-30T08:14:14.970Z,16.74
2023-04-30T08:16:43.008Z,16.91
2023-04-30T08:19:11.116Z,16.99
2023-04-30T08:21:39.426Z,17.10
2023-04-30T08:24:07.452Z,17.19
2023-04-30T08:26:35.569Z,17.29
2023-04-30T08:29:03.600Z,17.37
2023-04-30T08:31:31.684Z,17.45
2023-04-30T08:33:59.926Z,17.50
2023-04-30T08:36:28.047Z,17.60
2023-04-30T08:38:57.619Z,17.66
2023-04-30T08:41:26.493Z,17.65
2023-04-30T08:43:54.528Z,17.66
2023-04-30T08:46:24.444Z,17.78
2023-04-30T08:48:52.661Z,17.95
2023-04-30T08:51:20.878Z,17.99
2023-04-30T08:53:50.811Z,18.00
2023-04-30T08:56:18.841Z,17.98
2023-04-30T08:58:46.953Z,17.96
2023-04-30T09:01:14.892Z,17.97
2023-04-30T09:03:43.012Z,17.98
2023-04-30T09:06:15.970Z,18.01
2023-04-30T09:08:49.008Z,18.14
2023-04-30T09:11:30.545Z,18.13
2023-04-30T09:13:59.951Z,18.18
2023-04-30T09:16:33.224Z,18.25
2023-04-30T09:19:01.515Z,18.38
2023-04-30T09:21:36.410Z,18.49
2023-04-30T09:24:05.345Z,18.57
2023-04-30T09:26:35.295Z,18.54
2023-04-30T09:29:08.209Z,18.52
2023-04-30T09:31:37.408Z,18.63
2023-04-30T09:34:06.297Z,18.68
2023-04-30T09:36:34.739Z,18.75
2023-04-30T09:39:14.797Z,18.79
2023-04-30T09:41:43.584Z,18.78
2023-04-30T09:44:32.189Z,18.76
2023-04-30T09:47:00.468Z,18.92
2023-04-30T09:49:28.535Z,19.06
2023-04-30T09:52:01.124Z,19.11
2023-04-30T09:54:30.119Z,19.10
2023-04-30T09:56:59.514Z,19.17
2023-04-30T09:59:39.617Z,19.26
2023-04-30T10:02:08.443Z,19.35
2023-04-30T10:04:37.323Z,19.39
2023-04-30T10:07:22.262Z,19.45
2023-04-30T10:10:09.274Z,19.54
2023-04-30T10:12:54.710Z,19.69
2023-04-30T10:15:31.205Z,19.81
2023-04-30T10:18:03.642Z,19.83
2023-04-30T10:20:32.455Z,19.85
2023-04-30T10:23:00.879Z,19.88
2023-04-30T10:25:29.106Z,20.04
2023-04-30T10:27:57.724Z,20.09
2023-04-30T10:30:26.149Z,20.00
2023-04-30T10:33:33.040Z,19.89
2023-04-30T10:36:04.478Z,20.05
2023-04-30T10:38:32.959Z,20.12
2023-04-30T10:41:04.079Z,20.15
2023-04-30T10:43:33.244Z,20.17
2023-04-30T10:46:01.470Z,20.32
2023-04-30T10:48:31.346Z,20.35
2023-04-30T10:50:59.641Z,20.37
2023-04-30T10:53:31.557Z,20.38
2023-04-30T10:56:08.453Z,20.31
2023-04-30T10:58:40.131Z,20.32
2023-04-30T11:01:08.769Z,20.37
2023-04-30T11:03:37.732Z,20.62
2023-04-30T11:06:12.924Z,20.80
2023-04-30T11:08:44.314Z,20.91
2023-04-30T11:11:14.702Z,20.91
2023-04-30T11:13:45.207Z,21.00
2023-04-30T11:16:13.309Z,21.15
2023-04-30T11:18:42.618Z,21.25
2023-04-30T11:21:11.134Z,21.28
2023-04-30T11:23:45.572Z,21.32
2023-04-30T11:26:13.497Z,21.30
2023-04-30T11:28:41.516Z,21.33
2023-04-30T11:31:09.755Z,21.42
2023-04-30T11:33:37.763Z,21.50
2023-04-30T11:36:06.375Z,21.47
2023-04-30T11:38:35.643Z,21.45
2023-04-30T11:41:04.350Z,21.55
2023-04-30T11:43:33.308Z,21.69
2023-04-30T11:46:03.148Z,21.76
2023-04-30T11:48:32.759Z,21.81
2023-04-30T11:51:03.874Z,21.77
2023-04-30T11:53:32.048Z,21.73
2023-04-30T11:56:03.832Z,21.71
2023-04-30T11:58:38.827Z,21.72
2023-04-30T12:01:08.249Z,21.75
2023-04-30T12:03:46.589Z,21.89
2023-04-30T12:06:28.281Z,21.95
2023-04-30T12:08:57.524Z,22.07
2023-04-30T12:11:29.538Z,22.15
2023-04-30T12:14:24.844Z,22.15
2023-04-30T12:16:52.982Z,22.09
2023-04-30T12:19:22.305Z,22.01
2023-04-30T12:21:50.510Z,22.03
2023-04-30T12:24:19.224Z,21.98
2023-04-30T12:26:48.241Z,21.96
2023-04-30T12:29:17.234Z,22.04
2023-04-30T12:31:45.867Z,22.13
2023-04-30T12:34:14.821Z,22.12
2023-04-30T12:36:43.455Z,22.19
2023-04-30T12:39:16.437Z,22.32
2023-04-30T12:41:49.416Z,22.41
2023-04-30T12:44:17.357Z,22.59
2023-04-30T12:46:49.439Z,22.74
2023-04-30T12:49:28.209Z,22.95
2023-04-30T12:52:07.687Z,23.03
2023-04-30T12:54:37.011Z,23.02
2023-04-30T12:57:12.570Z,23.16
2023-04-30T12:59:52.045Z,23.20
2023-04-30T13:02:25.664Z,23.12
2023-04-30T13:04:54.079Z,23.26
2023-04-30T13:07:22.299Z,23.28
2023-04-30T13:09:50.310Z,23.30
2023-04-30T13:12:18.332Z,23.45
2023-04-30T13:14:46.508Z,23.65
2023-04-30T13:17:14.583Z,23.92
2023-04-30T13:19:42.691Z,24.12
2023-04-30T13:22:10.713Z,24.20
2023-04-30T13:24:38.740Z,24.23
2023-04-30T13:27:06.949Z,24.40
2023-04-30T13:29:34.772Z,24.45
2023-04-30T13:32:02.887Z,24.74
2023-04-30T13:34:31.068Z,24.71
2023-04-30T13:36:59.230Z,24.54
2023-04-30T13:39:27.256Z,24.35
2023-04-30T13:41:55.269Z,24.16
2023-04-30T13:44:23.385Z,23.91
2023-04-30T13:46:51.433Z,23.68
2023-04-30T13:49:19.435Z,23.44
2023-04-30T13:51:47.450Z,23.25
2023-04-30T13:54:15.369Z,23.06
2023-04-30T13:56:43.384Z,22.81
2023-04-30T13:59:11.370Z,22.64
2023-04-30T14:01:40.527Z,22.57
2023-04-30T14:04:08.691Z,22.52
2023-04-30T14:06:38.836Z,22.47
2023-04-30T14:09:07.000Z,22.46
2023-04-30T14:11:35.133Z,22.42
2023-04-30T14:14:03.346Z,22.46
2023-04-30T14:16:32.113Z,22.43
2023-04-30T14:19:00.379Z,22.34
2023-04-30T14:21:28.800Z,22.26
2023-04-30T14:23:56.825Z,22.12
2023-04-30T14:26:24.839Z,22.09
2023-04-30T14:28:52.758Z,22.07
2023-04-30T14:31:20.799Z,22.08
2023-04-30T14:33:49.013Z,22.08
2023-04-30T14:36:17.503Z,22.04
2023-04-30T14:38:45.643Z,21.94
2023-04-30T14:41:13.760Z,21.80
2023-04-30T14:43:41.880Z,21.72
2023-04-30T14:46:09.965Z,21.65
2023-04-30T14:48:38.123Z,21.57
2023-04-30T14:51:06.140Z,21.47
2023-04-30T14:53:34.165Z,21.38
2023-04-30T14:56:02.484Z,21.29
2023-04-30T14:58:30.398Z,21.25
2023-04-30T15:00:58.443Z,21.21
2023-04-30T15:03:26.495Z,21.25
2023-04-30T15:05:54.652Z,21.19
2023-04-30T15:08:22.881Z,21.09
2023-04-30T15:10:50.900Z,21.02
2023-04-30T15:13:18.920Z,20.91
2023-04-30T15:15:47.322Z,20.77
2023-04-30T15:18:15.867Z,20.71
2023-04-30T15:20:43.881Z,20.64
2023-04-30T15:23:12.704Z,20.59
2023-04-30T15:25:40.723Z,20.53
2023-04-30T15:28:08.740Z,20.55
2023-04-30T15:30:37.166Z,20.62
2023-04-30T15:33:05.237Z,20.70
2023-04-30T15:35:33.429Z,20.76
2023-04-30T15:38:01.420Z,20.57
2023-04-30T15:40:29.441Z,20.45
2023-04-30T15:42:57.462Z,20.44
2023-04-30T15:45:27.564Z,20.48
2023-04-30T15:47:55.773Z,20.48
2023-04-30T15:50:23.824Z,20.36
2023-04-30T15:52:51.797Z,20.20
2023-04-30T15:55:19.878Z,20.02
2023-04-30T15:57:47.884Z,19.84
2023-04-30T16:00:16.308Z,19.69
2023-04-30T16:02:44.429Z,19.72
2023-04-30T16:05:12.565Z,20.01
2023-04-30T16:07:43.632Z,20.30
2023-04-30T16:10:12.103Z,20.47
2023-04-30T16:12:40.115Z,20.54
2023-04-30T16:15:10.095Z,20.40
2023-04-30T16:17:38.135Z,20.13
2023-04-30T16:20:07.172Z,19.91
2023-04-30T16:22:35.306Z,19.79
2023-04-30T16:25:03.833Z,19.68
2023-04-30T16:27:32.834Z,19.40
2023-04-30T16:30:02.182Z,19.13
2023-04-30T16:32:30.219Z,18.90
2023-04-30T16:34:58.215Z,18.71
2023-04-30T16:37:26.736Z,18.44
2023-04-30T16:39:55.033Z,18.23
2023-04-30T16:42:23.275Z,18.07
2023-04-30T16:44:51.212Z,17.83
2023-04-30T16:47:19.625Z,17.60
2023-04-30T16:49:47.641Z,17.38
2023-04-30T16:52:15.766Z,17.11
2023-04-30T16:54:44.151Z,16.92
2023-04-30T16:57:12.303Z,16.68
2023-04-30T16:59:40.363Z,16.43
2023-04-30T17:02:08.369Z,16.22
2023-04-30T17:04:36.558Z,16.02
2023-04-30T17:07:04.485Z,15.82
2023-04-30T17:09:32.694Z,15.69
2023-04-30T17:12:00.720Z,15.61
2023-04-30T17:14:28.840Z,15.53
2023-04-30T17:16:57.444Z,15.44
2023-04-30T17:19:25.472Z,15.34
2023-04-30T17:21:53.501Z,15.22
2023-04-30T17:24:22.515Z,15.06
2023-04-30T17:26:51.248Z,14.86
2023-04-30T17:29:21.066Z,14.70
2023-04-30T17:31:49.307Z,14.58
2023-04-30T17:34:17.411Z,14.47
2023-04-30T17:36:45.423Z,14.34
2023-04-30T17:39:13.451Z,14.16
2023-04-30T17:41:42.090Z,13.95
2023-04-30T17:44:10.088Z,13.71
2023-04-30T17:46:39.658Z,13.53
2023-04-30T17:49:08.338Z,13.38
2023-04-30T17:51:36.467Z,13.21
2023-04-30T17:54:05.535Z,12.99
2023-04-30T17:56:33.696Z,12.80
2023-04-30T17:59:02.019Z,12.64
2023-04-30T18:01:30.062Z,12.53
2023-04-30T18:03:59.575Z,12.42
2023-04-30T18:06:28.273Z,12.35
2023-04-30T18:08:59.120Z,12.32
2023-04-30T18:11:27.744Z,12.29
2023-04-30T18:13:55.669Z,12.23
2023-04-30T18:16:23.605Z,12.16
2023-04-30T18:18:51.796Z,12.14
2023-04-30T18:21:19.819Z,12.12
2023-04-30T18:23:48.240Z,12.13
2023-04-30T18:26:20.910Z,12.15
2023-04-30T18:28:48.829Z,12.19
2023-04-30T18:31:16.928Z,12.22
2023-04-30T18:33:44.931Z,12.19
2023-04-30T18:36:13.253Z,12.15
2023-04-30T18:38:41.170Z,12.07
2023-04-30T18:41:09.189Z,11.99
2023-04-30T18:43:37.611Z,11.90
2023-04-30T18:46:06.236Z,11.88
2023-04-30T18:48:34.351Z,11.87
2023-04-30T18:51:02.374Z,11.86
2023-04-30T18:53:31.092Z,11.86
2023-04-30T18:55:59.113Z,11.79
2023-04-30T18:58:27.226Z,11.65
2023-04-30T19:00:58.319Z,11.49
2023-04-30T19:03:26.536Z,11.30
2023-04-30T19:05:57.725Z,11.18
2023-04-30T19:08:26.078Z,11.07
2023-04-30T19:10:56.071Z,10.99
2023-04-30T19:13:24.287Z,10.90
2023-04-30T19:15:53.907Z,10.79
2023-04-30T19:18:21.924Z,10.64
2023-04-30T19:20:57.313Z,10.53
2023-04-30T19:23:25.296Z,10.39
2023-04-30T19:25:53.308Z,10.32
2023-04-30T19:28:21.342Z,10.26
2023-04-30T19:30:56.511Z,10.14
2023-04-30T19:33:25.207Z,10.05
2023-04-30T19:35:57.789Z,9.97
2023-04-30T19:38:25.875Z,9.93
2023-04-30T19:40:54.385Z,9.89
2023-04-30T19:43:22.908Z,9.92
2023-04-30T19:45:57.699Z,9.93
2023-04-30T19:48:25.962Z,9.97
2023-04-30T19:50:54.581Z,9.92
2023-04-30T19:53:22.604Z,9.80
2023-04-30T19:55:52.485Z,9.71
2023-04-30T19:58:20.875Z,9.66
2023-04-30T20:00:48.862Z,9.65
2023-04-30T20:03:17.197Z,9.64
2023-04-30T20:05:45.321Z,9.58
2023-04-30T20:08:13.634Z,9.55
2023-04-30T20:10:42.965Z,9.55
2023-04-30T20:13:11.370Z,9.59
2023-04-30T20:15:39.397Z,9.62
2023-04-30T20:18:07.560Z,9.64
2023-04-30T20:20:35.743Z,9.58
2023-04-30T20:23:16.708Z,9.49
2023-04-30T20:25:45.591Z,9.42
2023-04-30T20:28:14.920Z,9.37
2023-04-30T20:30:43.908Z,9.33
2023-04-30T20:33:12.702Z,9.28
2023-04-30T20:35:41.740Z,9.22
2023-04-30T20:38:09.932Z,9.15
2023-04-30T20:40:40.610Z,9.09
2023-04-30T20:43:10.096Z,9.01
2023-04-30T20:45:38.410Z,8.96
2023-04-30T20:48:07.492Z,8.93
2023-04-30T20:50:36.820Z,8.88
2023-04-30T20:53:05.004Z,8.79
2023-04-30T20:55:32.994Z,8.73
2023-04-30T20:58:01.929Z,8.53
2023-04-30T21:00:29.937Z,8.39
2023-04-30T21:02:58.080Z,8.28
2023-04-30T21:05:27.197Z,8.18
2023-04-30T21:07:55.301Z,8.08
2023-04-30T21:10:23.349Z,7.99
2023-04-30T21:12:51.300Z,7.92
2023-04-30T21:15:19.361Z,7.87
2023-04-30T21:17:48.502Z,7.85
2023-04-30T21:20:16.704Z,7.86
2023-04-30T21:22:45.426Z,7.84
2023-04-30T21:25:13.497Z,7.87
2023-04-30T21:27:41.567Z,7.91
2023-04-30T21:30:10.424Z,7.85
2023-04-30T21:32:39.143Z,7.82
2023-04-30T21:35:07.536Z,7.81
2023-04-30T21:37:36.457Z,7.76
2023-04-30T21:40:04.979Z,7.73
2023-04-30T21:42:33.851Z,7.72
2023-04-30T21:45:01.822Z,7.70
2023-04-30T21:47:30.839Z,7.67
2023-04-30T21:49:59.304Z,7.63
2023-04-30T21:52:27.495Z,7.65
2023-04-30T21:54:55.910Z,7.70
2023-04-30T21:57:24.228Z,7.73
2023-04-30T21:59:52.250Z,7.74
2023-04-30T22:02:24.240Z,7.70
2023-04-30T22:04:57.806Z,7.67
2023-04-30T22:07:26.937Z,7.61
2023-04-30T22:09:55.330Z,7.55
2023-04-30T22:12:25.290Z,7.53
2023-04-30T22:14:54.102Z,7.47
2023-04-30T22:17:22.306Z,7.44
2023-04-30T22:19:50.742Z,7.36
2023-04-30T22:22:18.760Z,7.36
2023-04-30T22:24:46.785Z,7.41
2023-04-30T22:27:14.799Z,7.46
2023-04-30T22:29:42.816Z,7.54
2023-04-30T22:32:11.675Z,7.52
2023-04-30T22:34:41.078Z,7.52
2023-04-30T22:37:11.895Z,7.50
2023-04-30T22:39:40.049Z,7.49
2023-04-30T22:42:09.041Z,7.44
2023-04-30T22:44:37.969Z,7.41
2023-04-30T22:47:06.231Z,7.35
2023-04-30T22:49:34.304Z,7.35
2023-04-30T22:52:02.316Z,7.38
2023-04-30T22:54:30.438Z,7.41
2023-04-30T22:56:58.576Z,7.42
2023-04-30T22:59:26.593Z,7.40
2023-04-30T23:01:54.605Z,7.41
2023-04-30T23:04:22.744Z,7.41
2023-04-30T23:06:51.123Z,7.44
2023-04-30T23:09:19.867Z,7.47
2023-04-30T23:11:48.433Z,7.47
2023-04-30T23:14:16.906Z,7.44
2023-04-30T23:16:45.009Z,7.40
2023-04-30T23:19:13.252Z,7.38
2023-04-30T23:21:41.268Z,7.37
2023-04-30T23:24:09.299Z,7.39
2023-04-30T23:26:37.507Z,7.41
2023-04-30T23:29:05.521Z,7.41
2023-04-30T23:31:33.516Z,7.39
2023-04-30T23:34:01.564Z,7.39
2023-04-30T23:36:29.581Z,7.43
2023-04-30T23:38:57.603Z,7.49
2023-04-30T23:41:26.344Z,7.55
2023-04-30T23:43:54.262Z,7.59
2023-04-30T23:46:22.808Z,7.60
2023-04-30T23:48:50.895Z,7.66
2023-04-30T23:51:19.211Z,7.64
2023-04-30T23:53:47.232Z,7.63
2023-04-30T23:56:15.503Z,7.64
2023-04-30T23:58:44.170Z,7.69
